Time;durP1;ratioP1;P1;durP2;ratioP2;P2;SDS_P1;SDS_P2;PMS_P1;PMS_P2;Temp;Humidity;BMP_temperature;BMP_pressure;BME280_temperature;BME280_humidity;BME280_pressure;Samples;Min_cycle;Max_cycle;Signal;HPM_P1;HPM_P2
2023/04/28 00:01:35;;;;;;;21.67;12.40;;;;;;;8.42;68.77;101229.66;5031127;28;20026;-45
2023/04/28 00:04:00;;;;;;;22.67;12.35;;;;;;;8.43;69.96;101231.31;5030977;28;20079;-48
2023/04/28 00:06:25;;;;;;;23.70;13.00;;;;;;;8.45;69.75;101237.38;5031146;28;20071;-45
2023/04/28 00:08:51;;;;;;;22.67;12.57;;;;;;;8.45;69.99;101231.84;5032932;28;20029;-46
2023/04/28 00:11:16;;;;;;;23.45;13.10;;;;;;;8.43;70.60;101220.28;5035215;28;20029;-46
2023/04/28 00:13:41;;;;;;;23.15;13.65;;;;;;;8.43;70.46;101215.59;5035215;28;20452;-47
2023/04/28 00:16:07;;;;;;;22.35;13.02;;;;;;;8.43;70.91;101207.34;5034992;28;20061;-46
2023/04/28 00:18:32;;;;;;;23.02;13.60;;;;;;;8.39;71.88;101209.00;5035183;28;20090;-47
2023/04/28 00:20:58;;;;;;;23.52;13.43;;;;;;;8.33;72.80;101204.63;5033664;28;20068;-46
2023/04/28 00:23:23;;;;;;;25.17;13.90;;;;;;;8.29;73.10;101206.28;5033726;28;20072;-44
2023/04/28 00:25:52;;;;;;;22.88;13.35;;;;;;;8.25;74.12;101206.03;5035050;28;20037;-45
2023/04/28 00:28:17;;;;;;;24.27;13.73;;;;;;;8.22;75.11;101219.53;5034897;28;20054;-44
2023/04/28 00:30:43;;;;;;;23.70;14.75;;;;;;;8.19;74.91;101215.44;5034950;28;20433;-45
2023/04/28 00:33:08;;;;;;;22.30;13.32;;;;;;;8.20;75.48;101211.56;5035051;28;20053;-43
2023/04/28 00:35:33;;;;;;;23.30;13.50;;;;;;;8.19;75.98;101201.66;5034971;28;20029;-46
2023/04/28 00:37:58;;;;;;;24.60;14.32;;;;;;;8.20;75.65;101186.75;5033592;28;20048;-46
2023/04/28 00:40:35;;;;;;;24.02;13.70;;;;;;;8.17;77.06;101190.06;5034728;28;20466;-47
2023/04/28 00:43:01;;;;;;;25.02;15.10;;;;;;;8.18;76.64;101180.69;5034837;28;20030;-47
2023/04/28 00:45:26;;;;;;;25.33;15.00;;;;;;;8.15;78.43;101185.94;5033258;28;20516;-46
2023/04/28 00:47:52;;;;;;;23.00;13.63;;;;;;;8.09;79.29;101177.69;5034643;28;20057;-45
2023/04/28 00:50:17;;;;;;;24.08;14.82;;;;;;;8.02;80.22;101171.66;5033094;28;20079;-45
2023/04/28 00:52:43;;;;;;;23.33;13.75;;;;;;;7.94;79.94;101170.28;5034447;28;20029;-48
2023/04/28 00:55:09;;;;;;;23.48;14.02;;;;;;;7.91;81.90;101165.38;5032963;28;20052;-45
2023/04/28 00:57:34;;;;;;;23.30;13.98;;;;;;;7.86;82.91;101175.56;5034314;28;20400;-48
2023/04/28 01:00:00;;;;;;;24.10;14.57;;;;;;;7.81;82.81;101174.47;5034240;28;20029;-45
2023/04/28 01:02:28;;;;;;;24.77;14.77;;;;;;;7.75;83.20;101164.59;5034270;28;20036;-46
2023/04/28 01:04:55;;;;;;;24.25;14.25;;;;;;;7.75;84.31;101164.59;5034476;28;20465;-46
2023/04/28 01:07:20;;;;;;;24.60;14.90;;;;;;;7.75;84.35;101159.06;5034472;28;20064;-46
2023/04/28 01:09:46;;;;;;;24.98;15.00;;;;;;;7.78;83.96;101160.44;5032570;28;20057;-45
2023/04/28 01:12:12;;;;;;;24.80;14.23;;;;;;;7.80;83.61;101155.47;5032689;28;20052;-45
2023/04/28 01:14:37;;;;;;;24.70;14.82;;;;;;;7.79;84.07;101151.88;5033798;28;20453;-45
2023/04/28 01:17:03;;;;;;;25.13;15.07;;;;;;;7.74;85.15;101149.16;5034102;28;20030;-47
2023/04/28 01:19:29;;;;;;;25.17;15.20;;;;;;;7.67;86.33;101150.53;5033921;28;20092;-46
2023/04/28 01:21:54;;;;;;;25.58;15.35;;;;;;;7.61;86.25;101141.47;5034004;28;20083;-48
2023/04/28 01:24:19;;;;;;;23.85;14.95;;;;;;;7.59;87.66;101140.94;5033899;28;20029;-45
2023/04/28 01:26:45;;;;;;;26.48;15.13;;;;;;;7.58;87.30;101126.34;5033934;28;20044;-49
2023/04/28 01:29:10;;;;;;;23.67;14.73;;;;;;;7.60;86.55;101117.81;5033664;28;20432;-47
2023/04/28 01:31:36;;;;;;;22.80;14.75;;;;;;;7.60;86.00;101107.63;5033833;28;20381;-44
2023/04/28 01:34:01;;;;;;;24.90;15.32;;;;;;;7.59;87.05;101103.22;5033947;28;20450;-47
2023/04/28 01:36:27;;;;;;;25.15;15.40;;;;;;;7.54;87.81;101111.50;5033880;28;20056;-46
2023/04/28 01:38:53;;;;;;;24.35;15.27;;;;;;;7.49;88.00;101108.72;5033651;28;20490;-49
2023/04/28 01:41:18;;;;;;;24.63;15.00;;;;;;;7.42;88.19;101110.97;5033809;28;20029;-45
2023/04/28 01:43:43;;;;;;;25.08;15.70;;;;;;;7.39;88.22;101117.00;5033815;28;20021;-45
2023/04/28 01:46:09;;;;;;;25.17;15.35;;;;;;;7.36;89.08;101107.38;5033677;28;20167;-50
2023/04/28 01:48:34;;;;;;;25.38;15.45;;;;;;;7.33;89.93;101102.44;5033560;28;20037;-45
2023/04/28 01:51:00;;;;;;;24.77;15.38;;;;;;;7.35;89.31;101100.22;5033652;28;20036;-45
2023/04/28 01:53:25;;;;;;;25.83;15.48;;;;;;;7.39;89.13;101095.84;5033559;28;20029;-45
2023/04/28 01:55:50;;;;;;;25.23;14.25;;;;;;;7.40;88.60;101091.97;5033484;28;20056;-47
2023/04/28 01:58:16;;;;;;;25.13;15.90;;;;;;;7.38;87.41;101091.44;5033348;28;20057;-48
2023/04/28 02:00:41;;;;;;;25.05;15.98;;;;;;;7.37;88.46;101083.47;5033169;28;20074;-48
2023/04/28 02:03:06;;;;;;;24.38;15.38;;;;;;;7.36;88.53;101087.31;5033277;28;20056;-45
2023/04/28 02:05:32;;;;;;;24.02;15.05;;;;;;;7.34;88.92;101079.31;5031973;28;20033;-45
2023/04/28 02:07:57;;;;;;;25.63;15.93;;;;;;;7.38;88.85;101076.81;5033369;28;20143;-48
2023/04/28 02:10:22;;;;;;;24.75;15.55;;;;;;;7.41;88.61;101088.13;5033179;28;20470;-44
2023/04/28 02:12:47;;;;;;;26.33;15.52;;;;;;;7.40;89.40;101086.47;5033016;28;20076;-44
2023/04/28 02:15:13;;;;;;;24.05;15.68;;;;;;;7.43;88.42;101096.91;5033133;28;20029;-47
2023/04/28 02:17:38;;;;;;;26.08;15.93;;;;;;;7.43;88.73;101088.66;5033138;28;20029;-45
2023/04/28 02:20:05;;;;;;;26.13;15.02;;;;;;;7.45;88.70;101085.63;5032936;28;20477;-45
2023/04/28 02:22:30;;;;;;;27.38;15.90;;;;;;;7.46;89.37;101085.34;5032932;28;20128;-44
2023/04/28 02:24:56;;;;;;;26.20;15.43;;;;;;;7.47;89.08;101078.75;5032784;28;20117;-44
2023/04/28 02:27:21;;;;;;;26.00;15.10;;;;;;;7.45;90.17;101077.38;5032614;28;20129;-45
2023/04/28 02:29:47;;;;;;;25.73;14.95;;;;;;;7.44;89.58;101072.97;5032530;28;20109;-43
2023/04/28 02:32:12;;;;;;;24.77;14.77;;;;;;;7.42;90.20;101061.41;5032059;28;20088;-45
2023/04/28 02:34:37;;;;;;;24.73;15.52;;;;;;;7.41;90.11;101059.75;5031016;28;20065;-45
2023/04/28 02:37:03;;;;;;;24.83;15.65;;;;;;;7.41;90.23;101049.59;5032402;28;20025;-46
2023/04/28 02:39:29;;;;;;;25.63;16.05;;;;;;;7.37;90.49;101036.66;5032407;28;20057;-45
2023/04/28 02:41:55;;;;;;;26.10;15.93;;;;;;;7.39;89.99;101032.53;5032290;28;20037;-45
2023/04/28 02:44:21;;;;;;;26.50;16.52;;;;;;;7.38;90.95;101028.13;5032329;28;20393;-48
2023/04/28 02:46:46;;;;;;;27.08;16.27;;;;;;;7.39;91.09;101032.53;5032177;28;20809;-45
2023/04/28 02:49:11;;;;;;;25.80;16.63;;;;;;;7.37;92.35;101026.47;5030795;28;20436;-45
2023/04/28 02:51:37;;;;;;;24.27;15.73;;;;;;;7.39;91.44;101015.16;5032221;28;20477;-47
2023/04/28 02:54:03;;;;;;;25.38;15.90;;;;;;;7.38;92.05;101014.38;5031986;28;20112;-45
2023/04/28 02:56:31;;;;;;;25.67;16.23;;;;;;;7.33;92.61;100997.84;5032066;28;20071;-45
2023/04/28 02:58:57;;;;;;;28.92;17.55;;;;;;;7.32;92.74;100991.53;5032147;28;20029;-44
2023/04/28 03:01:22;;;;;;;26.08;17.02;;;;;;;7.33;92.84;100995.94;5032006;28;20040;-47
2023/04/28 03:03:48;;;;;;;26.13;16.77;;;;;;;7.36;92.48;101005.56;5031949;28;20029;-46
2023/04/28 03:06:13;;;;;;;25.63;16.85;;;;;;;7.39;93.35;100995.91;5031752;28;20037;-46
2023/04/28 03:08:38;;;;;;;27.13;16.73;;;;;;;7.42;93.38;100987.91;5031762;28;20060;-45
2023/04/28 03:11:04;;;;;;;26.60;16.20;;;;;;;7.46;93.29;100989.00;5031841;28;20037;-44
2023/04/28 03:13:29;;;;;;;26.10;16.52;;;;;;;7.46;93.56;100988.19;5031732;28;20132;-46
2023/04/28 03:15:55;;;;;;;26.38;16.63;;;;;;;7.50;93.64;100992.00;5031636;28;20036;-47
2023/04/28 03:18:21;;;;;;;26.70;16.98;;;;;;;7.45;94.42;100990.09;5030302;28;20025;-49
2023/04/28 03:20:47;;;;;;;26.55;17.15;;;;;;;7.46;94.50;100994.50;5031723;28;20025;-49
2023/04/28 03:23:12;;;;;;;27.20;16.38;;;;;;;7.48;94.74;100994.22;5031633;28;20083;-48
2023/04/28 03:25:37;;;;;;;29.15;17.52;;;;;;;7.45;96.64;100992.03;5031519;28;20421;-48
2023/04/28 03:28:03;;;;;;;28.13;17.63;;;;;;;7.44;96.78;100984.88;5030076;28;20400;-47
2023/04/28 03:30:28;;;;;;;26.15;17.98;;;;;;;7.47;96.50;100987.91;5029861;28;20032;-47
2023/04/28 03:32:53;;;;;;;25.88;17.20;;;;;;;7.48;96.10;100991.47;5030000;28;20822;-46
2023/04/28 03:35:18;;;;;;;28.33;18.30;;;;;;;7.52;96.07;100983.47;5031401;28;20033;-47
2023/04/28 03:37:44;;;;;;;29.13;18.05;;;;;;;7.55;95.95;100994.75;5031280;28;20473;-45
2023/04/28 03:40:10;;;;;;;25.40;17.45;;;;;;;7.57;96.49;100992.53;5031105;28;20117;-46
2023/04/28 03:42:35;;;;;;;26.85;18.38;;;;;;;7.60;96.30;100985.66;5030473;28;20439;-45
2023/04/28 03:45:01;;;;;;;28.15;18.65;;;;;;;7.58;97.44;100977.66;5030925;28;20061;-45
2023/04/28 03:47:27;;;;;;;26.65;17.83;;;;;;;7.61;97.30;100979.00;5029857;28;20116;-46
2023/04/28 03:49:52;;;;;;;28.27;19.08;;;;;;;7.61;97.38;100968.00;5031263;28;20021;-45
2023/04/28 03:52:17;;;;;;;27.10;18.17;;;;;;;7.65;97.60;100969.91;5031106;28;20017;-47
2023/04/28 03:54:43;;;;;;;27.50;18.58;;;;;;;7.65;97.91;100969.09;5031043;28;20124;-45
2023/04/28 03:57:08;;;;;;;29.65;18.90;;;;;;;7.67;98.58;100971.56;5031046;28;20076;-46
2023/04/28 03:59:33;;;;;;;27.92;18.90;;;;;;;7.66;99.11;100962.47;5029617;28;20481;-46
2023/04/28 04:01:59;;;;;;;29.98;19.42;;;;;;;7.69;99.22;100966.59;5030983;28;20029;-44
2023/04/28 04:04:24;;;;;;;28.00;18.13;;;;;;;7.68;99.19;100962.19;5031025;28;20458;-44
2023/04/28 04:06:51;;;;;;;27.33;19.52;;;;;;;7.73;99.37;100968.50;5030917;28;20057;-45
2023/04/28 04:09:16;;;;;;;29.58;18.58;;;;;;;7.75;100.00;100973.72;5029442;28;20033;-45
2023/04/28 04:11:41;;;;;;;31.35;19.77;;;;;;;7.73;100.00;100970.44;5030970;28;20029;-45
2023/04/28 04:14:06;;;;;;;30.05;19.85;;;;;;;7.76;100.00;100964.34;5030909;28;20124;-46
2023/04/28 04:16:32;;;;;;;29.40;19.40;;;;;;;7.76;100.00;100959.69;5030846;28;20025;-46
2023/04/28 04:18:57;;;;;;;28.85;19.90;;;;;;;7.76;100.00;100956.09;5030822;28;20065;-46
2023/04/28 04:21:22;;;;;;;28.83;19.98;;;;;;;7.74;100.00;100961.06;5030926;28;20037;-46
2023/04/28 04:23:48;;;;;;;31.27;20.63;;;;;;;7.73;100.00;100951.16;5030780;28;20108;-48
2023/04/28 04:26:13;;;;;;;31.23;21.17;;;;;;;7.74;100.00;100948.13;5030471;28;20148;-48
2023/04/28 04:28:38;;;;;;;30.40;20.95;;;;;;;7.74;100.00;100945.38;5030775;28;20025;-45
2023/04/28 04:31:04;;;;;;;29.48;20.40;;;;;;;7.78;100.00;100951.13;5030629;28;20444;-44
2023/04/28 04:33:29;;;;;;;30.70;21.08;;;;;;;7.75;100.00;100947.00;5029023;28;20418;-46
2023/04/28 04:35:55;;;;;;;30.17;20.65;;;;;;;7.77;100.00;100953.06;5030535;28;20055;-48
2023/04/28 04:38:20;;;;;;;30.25;21.80;;;;;;;7.80;100.00;100946.16;5030334;28;20025;-47
2023/04/28 04:40:46;;;;;;;29.85;21.05;;;;;;;7.84;100.00;100946.41;5030243;28;20049;-45
2023/04/28 04:43:11;;;;;;;31.27;21.67;;;;;;;7.83;100.00;100951.09;5030382;28;20021;-46
2023/04/28 04:45:37;;;;;;;30.35;21.48;;;;;;;7.87;100.00;100948.59;5030548;28;20111;-46
2023/04/28 04:48:02;;;;;;;30.38;20.52;;;;;;;7.92;100.00;100948.56;5030534;28;20026;-45
2023/04/28 04:50:27;;;;;;;29.98;21.30;;;;;;;7.93;100.00;100941.94;5030273;28;20061;-45
2023/04/28 04:52:55;;;;;;;30.20;21.85;;;;;;;7.94;100.00;100935.31;5030172;28;20373;-44
2023/04/28 04:55:20;;;;;;;31.33;21.90;;;;;;;7.96;100.00;100933.91;5032673;28;20037;-46
2023/04/28 04:57:46;;;;;;;31.33;21.98;;;;;;;7.97;100.00;100938.31;5034076;28;20029;-45
2023/04/28 05:00:12;;;;;;;32.15;22.52;;;;;;;7.97;100.00;100932.81;5032633;28;20030;-45
2023/04/28 05:02:38;;;;;;;31.23;21.77;;;;;;;7.98;100.00;100928.16;5034030;28;20025;-46
2023/04/28 05:05:03;;;;;;;30.88;22.40;;;;;;;7.97;100.00;100926.50;5034008;28;20037;-45
2023/04/28 05:07:29;;;;;;;31.27;22.40;;;;;;;8.00;100.00;100925.91;5033938;28;20033;-45
2023/04/28 05:09:54;;;;;;;31.27;22.35;;;;;;;8.04;100.00;100928.91;5033600;28;20033;-45
2023/04/28 05:12:20;;;;;;;30.67;22.80;;;;;;;8.07;100.00;100931.09;5033912;28;20095;-46
2023/04/28 05:14:45;;;;;;;31.77;22.52;;;;;;;8.09;100.00;100928.88;5033718;28;20116;-44
2023/04/28 05:17:11;;;;;;;33.00;22.75;;;;;;;8.14;100.00;100928.81;5033715;28;20025;-44
2023/04/28 05:19:36;;;;;;;31.00;21.48;;;;;;;8.18;100.00;100921.66;5033827;28;20033;-44
2023/04/28 05:22:01;;;;;;;29.73;22.42;;;;;;;8.21;100.00;100918.31;5033652;28;20029;-45
2023/04/28 05:24:27;;;;;;;33.70;21.60;;;;;;;8.30;100.00;100914.94;5033543;28;20030;-45
2023/04/28 05:26:53;;;;;;;32.38;21.83;;;;;;;8.38;100.00;100901.34;5033319;28;20099;-45
2023/04/28 05:29:19;;;;;;;31.17;21.98;;;;;;;8.44;100.00;100893.84;5033291;28;20363;-45
2023/04/28 05:31:44;;;;;;;30.23;21.20;;;;;;;8.49;100.00;100895.75;5033651;28;20071;-44
2023/04/28 05:34:10;;;;;;;30.15;22.60;;;;;;;8.55;100.00;100884.41;5033376;28;20112;-45
2023/04/28 05:36:35;;;;;;;31.13;22.10;;;;;;;8.64;100.00;100897.53;5033297;28;20078;-47
2023/04/28 05:39:01;;;;;;;32.47;22.25;;;;;;;8.66;100.00;100895.31;5033121;28;20041;-49
2023/04/28 05:41:26;;;;;;;30.95;22.15;;;;;;;8.69;100.00;100900.25;5033174;28;20041;-48
2023/04/28 05:43:51;;;;;;;31.17;22.48;;;;;;;8.71;100.00;100912.66;5031505;28;20444;-48
2023/04/28 05:46:17;;;;;;;30.20;21.85;;;;;;;8.78;100.00;100917.81;5033120;28;20029;-47
2023/04/28 05:48:43;;;;;;;30.63;21.35;;;;;;;8.81;100.00;100905.38;5032892;28;20021;-45
2023/04/28 05:51:08;;;;;;;30.40;22.20;;;;;;;8.88;100.00;100901.13;5033109;28;20080;-49
2023/04/28 05:53:33;;;;;;;30.20;21.83;;;;;;;8.99;100.00;100904.59;5033102;28;20036;-46
2023/04/28 05:55:58;;;;;;;28.50;21.33;;;;;;;9.05;100.00;100895.13;5032873;28;20129;-43
2023/04/28 05:58:24;;;;;;;27.77;20.65;;;;;;;9.09;100.00;100898.13;5032851;28;20393;-44
2023/04/28 06:00:49;;;;;;;29.63;22.02;;;;;;;9.14;100.00;100903.59;5032879;28;20018;-45
2023/04/28 06:03:17;;;;;;;28.10;21.88;;;;;;;9.18;100.00;100899.13;5032823;28;20033;-46
2023/04/28 06:05:43;;;;;;;29.65;21.20;;;;;;;9.26;100.00;100905.94;5031966;28;20092;-46
2023/04/28 06:08:08;;;;;;;28.30;21.75;;;;;;;9.31;100.00;100905.84;5031152;28;20022;-45
2023/04/28 06:10:33;;;;;;;29.30;21.60;;;;;;;9.36;100.00;100916.84;5031118;28;20033;-49
2023/04/28 06:12:59;;;;;;;30.70;21.42;;;;;;;9.41;100.00;100898.56;5032491;28;20025;-45
2023/04/28 06:15:24;;;;;;;28.38;22.02;;;;;;;9.43;100.00;100882.50;5032357;28;20503;-45
2023/04/28 06:17:50;;;;;;;27.85;21.95;;;;;;;9.46;100.00;100893.78;5032292;28;20111;-46
2023/04/28 06:20:15;;;;;;;29.67;21.58;;;;;;;9.51;100.00;100913.06;5032308;28;20117;-45
2023/04/28 06:22:40;;;;;;;30.98;22.52;;;;;;;9.50;100.00;100910.56;5032253;28;20032;-45
2023/04/28 06:25:06;;;;;;;30.02;22.35;;;;;;;9.47;100.00;100917.53;5032330;28;20033;-45
2023/04/28 06:27:32;;;;;;;32.90;21.88;;;;;;;9.52;100.00;100913.88;5030584;28;20441;-46
2023/04/28 06:29:58;;;;;;;30.65;21.60;;;;;;;9.60;100.00;100901.34;5032245;28;20053;-45
2023/04/28 06:32:23;;;;;;;28.55;21.17;;;;;;;9.76;100.00;100911.03;5032205;28;20029;-46
2023/04/28 06:34:48;;;;;;;29.65;21.77;;;;;;;9.87;100.00;100900.66;5032110;28;20108;-50
2023/04/28 06:37:14;;;;;;;29.55;21.73;;;;;;;9.97;100.00;100899.69;5032231;28;20037;-46
2023/04/28 06:39:39;;;;;;;28.83;21.65;;;;;;;10.03;100.00;100901.22;5031886;28;20030;-49
2023/04/28 06:42:05;;;;;;;30.25;21.52;;;;;;;10.02;100.00;100910.63;5032061;28;20025;-46
2023/04/28 06:44:30;;;;;;;29.13;21.52;;;;;;;9.96;100.00;100900.78;5032116;28;20120;-48
2023/04/28 06:46:55;;;;;;;29.60;20.95;;;;;;;10.01;100.00;100909.03;5031979;28;20470;-44
2023/04/28 06:49:21;;;;;;;28.70;20.33;;;;;;;10.10;100.00;100900.84;5031938;28;20111;-46
2023/04/28 06:51:46;;;;;;;30.35;21.85;;;;;;;10.19;100.00;100906.53;5032036;28;20132;-46
2023/04/28 06:54:12;;;;;;;29.10;20.65;;;;;;;10.20;100.00;100908.16;5031803;28;20060;-49
2023/04/28 06:56:37;;;;;;;29.77;20.23;;;;;;;10.19;100.00;100909.28;5031652;28;20064;-46
2023/04/28 06:59:03;;;;;;;29.25;21.42;;;;;;;10.19;100.00;100901.00;5031677;28;20382;-49
2023/04/28 07:01:28;;;;;;;28.75;21.08;;;;;;;10.24;100.00;100900.91;5031756;28;20028;-48
2023/04/28 07:03:53;;;;;;;28.92;20.50;;;;;;;10.29;100.00;100892.53;5031646;28;20029;-45
2023/04/28 07:06:19;;;;;;;27.63;21.05;;;;;;;10.39;100.00;100886.03;5031693;28;20477;-45
2023/04/28 07:08:45;;;;;;;31.13;20.98;;;;;;;10.54;100.00;100888.50;5031371;28;20474;-45
2023/04/28 07:11:10;;;;;;;29.27;21.52;;;;;;;10.71;100.00;100887.09;5031514;28;20021;-48
2023/04/28 07:13:35;;;;;;;27.98;21.13;;;;;;;10.87;100.00;100890.38;5031520;28;20481;-44
2023/04/28 07:16:01;;;;;;;28.58;21.52;;;;;;;10.98;100.00;100882.69;5031727;28;20470;-45
2023/04/28 07:18:27;;;;;;;29.60;21.80;;;;;;;11.08;100.00;100879.72;5031250;28;20487;-44
2023/04/28 07:20:52;;;;;;;27.92;21.10;;;;;;;11.24;100.00;100877.47;5031463;28;20051;-44
2023/04/28 07:23:18;;;;;;;28.50;22.00;;;;;;;11.39;100.00;100879.03;5031359;28;20028;-45
2023/04/28 07:25:43;;;;;;;29.67;21.90;;;;;;;11.47;100.00;100874.72;5031458;28;20044;-45
2023/04/28 07:28:08;;;;;;;28.42;21.08;;;;;;;11.53;100.00;100873.47;5031125;28;20053;-45
2023/04/28 07:30:34;;;;;;;28.33;21.02;;;;;;;11.59;100.00;100875.00;5031216;28;20489;-48
2023/04/28 07:33:00;;;;;;;27.13;20.98;;;;;;;11.65;100.00;100862.66;5031318;28;20033;-48
2023/04/28 07:35:25;;;;;;;26.85;20.65;;;;;;;11.73;100.00;100855.56;5031315;28;20404;-45
2023/04/28 07:37:52;;;;;;;28.17;22.05;;;;;;;11.88;100.00;100868.25;5030973;28;20030;-46
2023/04/28 07:40:18;;;;;;;29.15;21.00;;;;;;;12.01;100.00;100881.25;5030959;28;20063;-46
2023/04/28 07:42:44;;;;;;;28.50;21.23;;;;;;;11.95;100.00;100874.16;5031030;28;20612;-48
2023/04/28 07:45:10;;;;;;;27.95;21.08;;;;;;;11.85;100.00;100877.19;5030985;28;20029;-48
2023/04/28 07:47:36;;;;;;;28.17;21.00;;;;;;;11.80;100.00;100886.44;5031049;28;20040;-45
2023/04/28 07:50:05;;;;;;;28.00;20.52;;;;;;;11.78;100.00;100879.56;5031054;28;20055;-45
2023/04/28 07:52:30;;;;;;;29.92;22.33;;;;;;;11.78;100.00;100888.69;5030847;28;20093;-47
2023/04/28 07:54:56;;;;;;;29.02;21.02;;;;;;;11.76;100.00;100877.09;5029327;28;20114;-49
2023/04/28 07:57:21;;;;;;;27.80;20.38;;;;;;;11.75;100.00;100880.19;5030872;28;20036;-50
2023/04/28 07:59:46;;;;;;;26.42;19.70;;;;;;;11.70;100.00;100892.22;5029234;28;20045;-45
2023/04/28 08:02:13;;;;;;;30.00;21.42;;;;;;;11.65;100.00;100887.59;5030758;28;20183;-47
2023/04/28 08:04:38;;;;;;;28.70;20.83;;;;;;;11.67;100.00;100884.50;5030767;28;20179;-44
2023/04/28 08:07:03;;;;;;;28.52;21.13;;;;;;;11.67;100.00;100890.06;5029251;28;20533;-45
2023/04/28 08:09:29;;;;;;;27.85;20.80;;;;;;;11.66;100.00;100894.78;5030560;28;20119;-46
2023/04/28 08:11:54;;;;;;;28.27;20.92;;;;;;;11.71;100.00;100899.41;5030700;28;20025;-46
2023/04/28 08:14:20;;;;;;;30.80;21.55;;;;;;;11.74;100.00;100881.31;5030530;28;20100;-45
2023/04/28 08:16:47;;;;;;;27.27;20.58;;;;;;;11.83;100.00;100890.53;5030660;28;20129;-46
2023/04/28 08:19:12;;;;;;;26.65;20.63;;;;;;;11.83;100.00;100885.81;5030656;28;20049;-46
2023/04/28 08:21:38;;;;;;;27.85;20.65;;;;;;;11.80;100.00;100882.84;5030701;28;20182;-45
2023/04/28 08:24:03;;;;;;;29.02;21.17;;;;;;;11.77;100.00;100875.97;5030375;28;20496;-46
2023/04/28 08:26:28;;;;;;;27.30;20.90;;;;;;;11.83;100.00;100879.44;5030908;28;20054;-45
2023/04/28 08:28:53;;;;;;;27.25;20.83;;;;;;;11.88;100.00;100882.09;5031029;28;20521;-44
2023/04/28 08:31:19;;;;;;;26.13;20.45;;;;;;;11.94;100.00;100880.03;5033496;28;20025;-46
2023/04/28 08:33:47;;;;;;;26.88;20.63;;;;;;;11.96;100.00;100877.75;5034800;28;20358;-46
2023/04/28 08:36:13;;;;;;;26.90;22.13;;;;;;;11.98;100.00;100895.75;5034827;28;20443;-46
2023/04/28 08:38:39;;;;;;;26.65;21.88;;;;;;;12.03;100.00;100886.50;5035095;28;20032;-46
2023/04/28 08:41:04;;;;;;;27.73;22.33;;;;;;;12.05;100.00;100886.97;5034791;28;20030;-48
2023/04/28 08:43:34;;;;;;;30.85;25.77;;;;;;;12.13;100.00;100885.41;5034707;28;20033;-45
2023/04/28 08:46:04;;;;;;;30.45;23.60;;;;;;;12.15;100.00;100883.13;5034649;28;20049;-46
2023/04/28 08:48:37;;;;;;;28.67;23.40;;;;;;;12.07;100.00;100893.03;5034658;28;20504;-46
2023/04/28 08:51:05;;;;;;;28.23;23.08;;;;;;;12.06;100.00;100880.28;5033307;28;20039;-46
2023/04/28 08:53:31;;;;;;;28.58;23.50;;;;;;;12.07;100.00;100886.66;5034638;28;20454;-45
2023/04/28 08:55:57;;;;;;;28.92;23.48;;;;;;;12.13;100.00;100882.63;5034537;28;20029;-48
2023/04/28 08:58:23;;;;;;;29.25;23.58;;;;;;;12.11;100.00;100885.72;5034421;28;20029;-44
2023/04/28 09:00:50;;;;;;;28.27;23.95;;;;;;;12.14;100.00;100884.28;5034354;28;20026;-49
2023/04/28 09:03:15;;;;;;;28.40;24.20;;;;;;;12.15;100.00;100880.38;5034302;28;20040;-45
2023/04/28 09:05:40;;;;;;;29.08;24.40;;;;;;;12.17;100.00;100890.00;5034221;28;20026;-48
2023/04/28 09:08:06;;;;;;;28.70;24.30;;;;;;;12.16;100.00;100891.13;5032716;28;20077;-46
2023/04/28 09:10:31;;;;;;;30.35;25.00;;;;;;;12.14;100.00;100890.63;5034114;28;20029;-46
2023/04/28 09:12:57;;;;;;;28.80;24.95;;;;;;;12.16;100.00;100891.13;5034171;28;20029;-44
2023/04/28 09:15:36;;;;;;;29.85;24.10;;;;;;;12.15;100.00;100888.69;5034304;28;20097;-44
2023/04/28 09:18:03;;;;;;;29.35;25.13;;;;;;;12.16;100.00;100891.13;5034250;28;20036;-44
2023/04/28 09:20:30;;;;;;;29.25;25.35;;;;;;;12.15;100.00;100886.72;5032676;28;20025;-45
2023/04/28 09:23:12;;;;;;;29.88;25.35;;;;;;;12.12;100.00;100884.59;5033847;28;20096;-45
2023/04/28 09:25:38;;;;;;;31.95;25.30;;;;;;;12.16;100.00;100891.13;5033996;28;20496;-45
2023/04/28 09:28:20;;;;;;;32.35;26.88;;;;;;;12.24;100.00;100883.19;5033825;28;20081;-47
2023/04/28 09:30:46;;;;;;;30.30;24.38;;;;;;;12.39;100.00;100885.56;5033954;28;20126;-46
2023/04/28 09:33:11;;;;;;;31.98;25.90;;;;;;;12.66;100.00;100883.75;5033903;28;20109;-50
2023/04/28 09:35:41;;;;;;;31.20;25.35;;;;;;;12.76;100.00;100885.41;5033846;28;20497;-45
2023/04/28 09:38:07;;;;;;;30.67;23.95;;;;;;;12.75;100.00;100892.94;5033724;28;20108;-45
2023/04/28 09:40:33;;;;;;;31.83;24.95;;;;;;;12.71;100.00;100888.34;5032715;28;20112;-46
2023/04/28 09:42:58;;;;;;;31.02;24.63;;;;;;;12.76;100.00;100885.41;5033242;28;20029;-46
2023/04/28 09:45:24;;;;;;;30.80;24.80;;;;;;;12.76;100.00;100880.69;5033626;28;20377;-47
2023/04/28 09:47:50;;;;;;;32.00;24.33;;;;;;;12.75;100.00;100883.81;5033524;28;20159;-47
2023/04/28 09:50:17;;;;;;;29.48;24.48;;;;;;;12.74;100.00;100882.97;5033239;28;20137;-44
2023/04/28 09:52:56;;;;;;;29.67;23.88;;;;;;;12.77;100.00;100879.56;5031819;28;20445;-44
2023/04/28 09:55:21;;;;;;;30.65;25.38;;;;;;;12.82;100.00;100886.09;5031831;28;20026;-47
2023/04/28 09:57:48;;;;;;;29.55;24.15;;;;;;;12.82;100.00;100886.09;5033219;28;20048;-45
2023/04/28 10:00:15;;;;;;;28.73;23.88;;;;;;;12.86;100.00;100884.31;5033123;28;20112;-47
2023/04/28 10:02:41;;;;;;;29.92;24.27;;;;;;;12.96;100.00;100889.59;5033059;28;20485;-47
2023/04/28 10:05:08;;;;;;;30.75;24.35;;;;;;;13.02;100.00;100881.94;5032863;28;20036;-46
2023/04/28 10:07:34;;;;;;;30.48;23.73;;;;;;;13.02;100.00;100882.75;5031469;28;20112;-45
2023/04/28 10:10:00;;;;;;;29.60;23.95;;;;;;;13.03;100.00;100876.06;5032945;28;20033;-44
2023/04/28 10:12:26;;;;;;;29.17;23.48;;;;;;;13.07;100.00;100885.38;5032834;28;20117;-47
2023/04/28 10:14:56;;;;;;;31.90;24.10;;;;;;;13.11;100.00;100886.34;5032968;28;20112;-46
2023/04/28 10:17:24;;;;;;;31.15;24.17;;;;;;;13.18;100.00;100885.06;5033002;28;20116;-45
2023/04/28 10:19:52;;;;;;;29.92;24.38;;;;;;;13.21;100.00;100889.97;5033003;28;20033;-47
2023/04/28 10:22:41;;;;;;;29.45;23.23;;;;;;;13.28;100.00;100887.53;5032809;28;20048;-47
2023/04/28 10:25:10;;;;;;;30.77;23.40;;;;;;;13.31;100.00;100888.88;5031462;28;20034;-45
2023/04/28 10:27:38;;;;;;;32.40;24.15;;;;;;;13.39;100.00;100888.09;5032611;28;20053;-44
2023/04/28 10:30:14;;;;;;;30.30;23.98;;;;;;;13.38;100.00;100886.44;5032631;28;20025;-46
2023/04/28 10:32:40;;;;;;;29.25;22.90;;;;;;;13.42;100.00;100879.09;5032537;28;20040;-46
2023/04/28 10:35:39;;;;;;;29.42;23.60;;;;;;;13.46;100.00;100884.84;5032446;28;20421;-47
2023/04/28 10:38:16;;;;;;;30.27;23.80;;;;;;;13.41;100.00;100883.84;5031057;28;20037;-46
2023/04/28 10:40:43;;;;;;;33.00;25.83;;;;;;;13.42;100.00;100887.44;5032365;28;20496;-45
2023/04/28 10:43:13;;;;;;;30.85;25.02;;;;;;;13.46;100.00;100879.28;5032339;28;20397;-45
2023/04/28 10:45:54;;;;;;;31.42;25.17;;;;;;;13.56;100.00;100882.56;5032261;28;20053;-50
2023/04/28 10:48:22;;;;;;;31.52;24.83;;;;;;;13.69;100.00;100877.19;5032303;28;20034;-49
2023/04/28 10:51:03;;;;;;;33.53;27.13;;;;;;;13.80;100.00;100877.66;5032060;28;20083;-45
2023/04/28 10:53:43;;;;;;;35.83;29.02;;;;;;;13.75;100.00;100875.03;5031678;28;20037;-48
2023/04/28 10:56:29;;;;;;;35.55;29.27;;;;;;;13.65;100.00;100879.75;5032035;28;20030;-46
2023/04/28 10:58:58;;;;;;;39.83;31.65;;;;;;;13.60;100.00;100879.13;5031780;28;20052;-49
2023/04/28 11:01:30;;;;;;;39.90;30.70;;;;;;;13.67;100.00;100876.69;5031859;28;20064;-49
2023/04/28 11:04:09;;;;;;;40.28;32.30;;;;;;;13.76;100.00;100880.28;5032027;28;20072;-46
2023/04/28 11:06:42;;;;;;;42.47;33.67;;;;;;;13.76;100.00;100876.66;5031950;28;20033;-48